Time;durP1;ratioP1;P1;durP2;ratioP2;P2;SDS_P1;SDS_P2;PMS_P1;PMS_P2;Temp;Humidity;BMP_temperature;BMP_pressure;BME280_temperature;BME280_humidity;BME280_pressure;Samples;Min_cycle;Max_cycle;Signal;HPM_P1;HPM_P2
2021/06/28 00:01:32;;;;;;;7.05;6.35;;;;;;;18.37;64.86;100461.29;124054;1098;103202;-80
2021/06/28 00:04:00;;;;;;;8.57;7.77;;;;;;;18.39;64.67;100467.45;124303;1100;114610;-80
2021/06/28 00:06:28;;;;;;;8.87;7.57;;;;;;;18.38;64.42;100463.89;124189;1100;103108;-81
2021/06/28 00:08:56;;;;;;;8.57;7.73;;;;;;;18.41;64.41;100468.23;124230;1096;116115;-81
2021/06/28 00:11:23;;;;;;;7.80;6.80;;;;;;;18.38;64.71;100460.34;124261;1096;103186;-80
2021/06/28 00:13:53;;;;;;;8.68;7.78;;;;;;;18.34;64.11;100467.73;124374;1095;103180;-80
2021/06/28 00:16:24;;;;;;;8.25;7.18;;;;;;;18.38;64.52;100477.38;127022;1096;114625;-81
2021/06/28 00:18:53;;;;;;;7.90;7.00;;;;;;;18.38;63.89;100480.07;124340;1096;103118;-81
2021/06/28 00:21:21;;;;;;;9.25;7.35;;;;;;;18.31;63.72;100467.03;124102;1096;115030;-80
2021/06/28 00:23:48;;;;;;;11.15;8.78;;;;;;;18.33;63.17;100479.46;124236;1095;103022;-81
2021/06/28 00:26:16;;;;;;;8.80;7.77;;;;;;;18.34;63.28;100481.20;124462;1095;103187;-81
2021/06/28 00:28:43;;;;;;;8.58;7.65;;;;;;;18.33;63.48;100479.46;124383;1096;114606;-81
2021/06/28 00:31:10;;;;;;;10.23;7.57;;;;;;;18.34;63.26;100472.23;124436;1096;103016;-81
2021/06/28 00:33:38;;;;;;;7.80;7.00;;;;;;;18.33;63.92;100474.07;124340;1096;114957;-81
2021/06/28 00:36:06;;;;;;;12.03;7.20;;;;;;;18.29;63.55;100471.66;124373;1095;103192;-80
2021/06/28 00:38:33;;;;;;;7.65;6.90;;;;;;;18.21;63.70;100474.78;124340;1096;104509;-80
2021/06/28 00:41:01;;;;;;;9.87;7.60;;;;;;;18.19;63.71;100480.27;124104;1096;114437;-81
2021/06/28 00:43:29;;;;;;;10.53;8.20;;;;;;;18.21;63.96;100477.48;124377;1096;103057;-81
2021/06/28 00:45:58;;;;;;;9.63;8.17;;;;;;;18.22;63.36;100471.14;124358;1096;115050;-80
2021/06/28 00:48:26;;;;;;;7.67;6.97;;;;;;;18.25;63.15;100468.25;124396;1096;103166;-80
2021/06/28 00:51:07;;;;;;;8.75;7.45;;;;;;;18.15;63.65;100475.13;123786;1100;115020;-80
2021/06/28 00:53:48;;;;;;;7.78;7.05;;;;;;;18.15;63.91;100481.41;124306;1100;103136;-81
2021/06/28 00:56:30;;;;;;;8.65;7.70;;;;;;;18.13;64.05;100477.05;124154;1099;103310;-81
2021/06/28 00:58:58;;;;;;;8.03;7.20;;;;;;;18.10;63.86;100482.59;124297;1100;114702;-81
2021/06/28 01:01:26;;;;;;;8.43;6.45;;;;;;;18.00;64.20;100482.25;124022;1096;103684;-80
2021/06/28 01:03:53;;;;;;;12.73;7.40;;;;;;;17.96;64.33;100484.23;124343;1096;114779;-80
2021/06/28 01:06:21;;;;;;;10.30;6.98;;;;;;;17.92;64.81;100484.48;124305;1096;103049;-81
2021/06/28 01:09:03;;;;;;;9.80;7.50;;;;;;;17.88;64.39;100479.24;124223;1095;115138;-81
2021/06/28 01:11:31;;;;;;;8.70;7.80;;;;;;;17.85;64.49;100479.42;124199;1096;103161;-80
2021/06/28 01:13:59;;;;;;;9.50;7.90;;;;;;;17.80;64.98;100475.25;124161;1096;103684;-80
2021/06/28 01:16:27;;;;;;;9.80;6.65;;;;;;;17.86;64.83;100466.81;123962;1095;114679;-80
2021/06/28 01:18:55;;;;;;;10.70;6.55;;;;;;;17.87;64.90;100465.86;124265;1095;103010;-81
2021/06/28 01:21:22;;;;;;;7.85;7.00;;;;;;;17.91;64.95;100463.88;124019;1095;114966;-81
2021/06/28 01:23:50;;;;;;;7.70;6.87;;;;;;;17.90;64.60;100465.71;124188;1096;103185;-81
2021/06/28 01:26:17;;;;;;;7.73;6.80;;;;;;;17.80;64.81;100462.64;124215;1096;103187;-80
2021/06/28 01:28:44;;;;;;;9.58;7.78;;;;;;;17.79;64.94;100466.28;124887;1097;114379;-81
2021/06/28 01:31:12;;;;;;;7.53;6.20;;;;;;;17.84;65.15;100460.66;124359;1096;103135;-80
2021/06/28 01:33:40;;;;;;;8.70;7.90;;;;;;;17.83;64.97;100461.59;124240;1096;115310;-81
2021/06/28 01:36:08;;;;;;;9.38;7.88;;;;;;;17.79;64.86;100458.20;124260;1096;103172;-81
2021/06/28 01:38:36;;;;;;;9.87;8.33;;;;;;;17.73;65.14;100453.17;124422;1095;103183;-81
2021/06/28 01:41:04;;;;;;;10.43;7.73;;;;;;;17.73;65.15;100461.25;124130;1096;113905;-81
2021/06/28 01:43:32;;;;;;;7.70;6.97;;;;;;;17.76;65.15;100455.69;124587;1096;103005;-81
2021/06/28 01:46:00;;;;;;;8.17;6.80;;;;;;;17.76;65.16;100457.52;124061;1096;114588;-80
2021/06/28 01:48:29;;;;;;;10.48;7.63;;;;;;;17.75;65.24;100458.47;124199;1095;103022;-80
2021/06/28 01:50:58;;;;;;;8.03;7.23;;;;;;;17.69;65.18;100451.61;124235;1097;114616;-80
2021/06/28 01:53:25;;;;;;;7.53;6.83;;;;;;;17.69;65.25;100456.99;124195;1095;103115;-82
2021/06/28 01:55:53;;;;;;;9.18;7.70;;;;;;;17.67;65.60;100445.42;124122;1096;103777;-80
2021/06/28 01:58:20;;;;;;;8.13;7.33;;;;;;;17.68;65.31;100445.33;123997;1096;114627;-80
2021/06/28 02:00:52;;;;;;;8.97;7.83;;;;;;;17.66;65.48;100439.17;124283;1096;103495;-81
2021/06/28 02:03:21;;;;;;;10.50;6.98;;;;;;;17.62;65.16;100439.41;124169;1096;115133;-81
2021/06/28 02:05:57;;;;;;;7.20;6.55;;;;;;;17.54;65.33;100450.63;124351;1096;103103;-81
2021/06/28 02:08:38;;;;;;;7.80;7.00;;;;;;;17.47;65.46;100450.06;124431;1096;103255;-80
2021/06/28 02:11:06;;;;;;;9.00;7.10;;;;;;;17.48;66.05;100442.88;124374;1096;115383;-80
2021/06/28 02:13:36;;;;;;;7.47;6.77;;;;;;;17.47;65.56;100451.90;125094;1094;103168;-79
2021/06/28 02:16:05;;;;;;;8.93;6.47;;;;;;;17.51;65.95;100445.39;124490;1096;115146;-80
2021/06/28 02:18:32;;;;;;;9.37;7.63;;;;;;;17.52;65.59;100444.45;124390;1096;103172;-80
2021/06/28 02:21:01;;;;;;;9.70;7.17;;;;;;;17.58;65.37;100443.23;124196;1095;115964;-79
2021/06/28 02:23:33;;;;;;;7.93;7.03;;;;;;;17.59;65.98;100445.84;124434;1096;103005;-80
2021/06/28 02:26:17;;;;;;;7.75;6.45;;;;;;;17.58;65.45;100441.43;124373;1096;102929;-81
2021/06/28 02:28:58;;;;;;;7.30;6.60;;;;;;;17.62;65.17;100442.99;124278;1096;114716;-81
2021/06/28 02:31:26;;;;;;;9.85;7.23;;;;;;;17.64;65.14;100440.21;124310;1096;103073;-81
2021/06/28 02:33:54;;;;;;;8.53;6.80;;;;;;;17.63;65.48;100433.08;124297;1096;116036;-81
2021/06/28 02:36:23;;;;;;;7.85;6.90;;;;;;;17.60;65.76;100439.50;124570;1096;103054;-81
2021/06/28 02:38:52;;;;;;;7.30;6.57;;;;;;;17.58;65.66;100440.54;124258;1095;115863;-81
2021/06/28 02:41:20;;;;;;;9.60;6.90;;;;;;;17.54;65.25;100437.17;124394;1095;103451;-80
2021/06/28 02:43:49;;;;;;;8.97;7.03;;;;;;;17.53;65.01;100444.36;124281;1095;103019;-81
2021/06/28 02:46:17;;;;;;;7.50;6.23;;;;;;;17.53;65.68;100438.11;124699;1096;114600;-81
2021/06/28 02:48:45;;;;;;;7.05;6.35;;;;;;;17.54;64.98;100437.17;124311;1096;103838;-80
2021/06/28 02:51:14;;;;;;;7.60;6.30;;;;;;;17.60;65.05;100431.42;124334;1095;116334;-81
2021/06/28 02:53:42;;;;;;;6.50;5.90;;;;;;;17.64;65.15;100432.98;124288;1096;102991;-81
2021/06/28 02:56:12;;;;;;;6.88;6.23;;;;;;;17.62;65.63;100431.33;124231;1096;102970;-81
2021/06/28 02:58:55;;;;;;;8.20;7.27;;;;;;;17.58;65.34;100430.66;124410;1096;115214;-81
2021/06/28 03:01:37;;;;;;;10.18;6.65;;;;;;;17.58;65.18;100430.66;124404;1096;103080;-81
2021/06/28 03:06:50;;;;;;;7.28;6.58;;;;;;;17.63;65.31;100431.24;124263;1096;103161;-81
2021/06/28 03:09:18;;;;;;;9.87;7.23;;;;;;;17.65;64.99;100441.95;124063;1096;115951;-81
2021/06/28 03:11:45;;;;;;;8.07;6.93;;;;;;;17.66;65.86;100430.20;124356;1096;103707;-81
2021/06/28 03:14:12;;;;;;;9.08;7.35;;;;;;;17.69;65.42;100425.53;124379;1096;103233;-81
2021/06/28 03:16:39;;;;;;;7.53;6.83;;;;;;;17.78;65.25;100432.23;124223;1096;114720;-81
2021/06/28 03:19:07;;;;;;;8.30;7.50;;;;;;;17.83;64.90;100432.86;124325;1096;103280;-80
2021/06/28 03:21:34;;;;;;;11.13;8.47;;;;;;;17.81;65.26;100433.89;124209;1096;114420;-81
2021/06/28 03:24:01;;;;;;;11.80;6.87;;;;;;;17.84;64.35;100426.48;124386;1096;103137;-80
2021/06/28 03:26:29;;;;;;;9.73;7.18;;;;;;;17.93;64.09;100432.38;124291;1096;103120;-80
2021/06/28 03:28:56;;;;;;;8.25;6.88;;;;;;;17.99;64.22;100435.58;124430;1096;114341;-80
2021/06/28 03:31:37;;;;;;;10.70;6.80;;;;;;;18.07;63.19;100445.91;124279;1100;103243;-80
2021/06/28 03:34:05;;;;;;;8.57;7.23;;;;;;;18.14;63.09;100446.42;123960;1100;116405;-80
2021/06/28 03:36:46;;;;;;;8.20;7.38;;;;;;;18.15;62.14;100440.97;124106;1100;103215;-80
2021/06/28 03:39:13;;;;;;;7.50;6.80;;;;;;;18.11;62.44;100446.61;123836;1099;116337;-80
2021/06/28 03:41:41;;;;;;;7.95;5.93;;;;;;;18.14;62.49;100439.22;123658;1099;103099;-81
2021/06/28 03:44:08;;;;;;;7.35;6.40;;;;;;;18.25;62.60;100438.59;123883;1100;102971;-81
2021/06/28 03:46:36;;;;;;;8.23;7.30;;;;;;;18.26;61.92;100448.44;124020;1099;116163;-80
2021/06/28 03:49:17;;;;;;;8.53;6.77;;;;;;;18.27;62.41;100443.90;123936;1102;104705;-79
2021/06/28 03:51:59;;;;;;;8.13;6.67;;;;;;;18.31;61.73;100445.45;123535;1103;115038;-80
2021/06/28 03:54:27;;;;;;;6.75;6.08;;;;;;;18.31;61.66;100442.76;123408;1102;103192;-80
2021/06/28 03:56:54;;;;;;;8.05;7.25;;;;;;;18.38;61.56;100445.02;123436;1102;114790;-81
2021/06/28 03:59:35;;;;;;;7.75;6.75;;;;;;;18.42;62.30;100440.33;123782;1103;103431;-81
2021/06/28 04:02:03;;;;;;;7.95;6.75;;;;;;;18.44;62.38;100441.08;123725;1103;103074;-81
2021/06/28 04:04:30;;;;;;;7.83;7.13;;;;;;;18.41;61.97;100435.88;123565;1102;114349;-82
2021/06/28 04:07:11;;;;;;;7.88;6.45;;;;;;;18.38;62.19;100441.47;123599;1103;103135;-80
2021/06/28 04:09:53;;;;;;;12.13;6.57;;;;;;;18.36;62.13;100424.49;123646;1100;114803;-80
2021/06/28 04:12:21;;;;;;;9.43;6.73;;;;;;;18.45;61.52;100423.09;123684;1100;103172;-80
2021/06/28 04:14:49;;;;;;;8.00;6.93;;;;;;;18.50;61.59;100427.25;123641;1100;115039;-80
2021/06/28 04:17:16;;;;;;;6.70;5.93;;;;;;;18.58;61.15;100421.41;123727;1100;102974;-80
2021/06/28 04:19:43;;;;;;;6.17;5.67;;;;;;;18.62;61.42;100422.96;123737;1099;103499;-81
2021/06/28 04:22:11;;;;;;;10.67;7.20;;;;;;;18.61;61.12;100425.75;123687;1100;114621;-80
2021/06/28 04:24:38;;;;;;;9.55;7.08;;;;;;;18.64;61.20;100415.63;123854;1098;103869;-81
2021/06/28 04:27:06;;;;;;;8.33;6.95;;;;;;;18.76;61.24;100423.96;123932;1096;115849;-79
2021/06/28 04:29:33;;;;;;;9.90;7.50;;;;;;;18.83;60.73;100438.80;124289;1096;103410;-80
2021/06/28 04:32:02;;;;;;;10.27;6.73;;;;;;;18.88;61.48;100442.09;124336;1096;102959;-82
2021/06/28 04:34:31;;;;;;;8.10;7.30;;;;;;;18.94;60.99;100438.19;124574;1096;114786;-80
2021/06/28 04:36:59;;;;;;;12.13;7.20;;;;;;;18.97;61.64;100443.42;124349;1095;103039;-80
2021/06/28 04:39:40;;;;;;;7.43;6.67;;;;;;;19.06;60.53;100448.25;124146;1100;116596;-80
2021/06/28 04:42:21;;;;;;;8.85;7.33;;;;;;;19.09;60.64;100442.66;124126;1099;103087;-80
2021/06/28 04:45:04;;;;;;;10.60;7.25;;;;;;;19.15;60.15;100436.89;123617;1102;115304;-81
2021/06/28 04:47:32;;;;;;;7.65;6.90;;;;;;;19.18;60.25;100438.50;124089;1098;103243;-79
2021/06/28 04:50:03;;;;;;;9.10;7.23;;;;;;;19.22;60.43;100448.19;123932;1098;103068;-79
2021/06/28 04:52:31;;;;;;;9.93;6.53;;;;;;;19.26;60.39;100444.33;124180;1096;114555;-79
2021/06/28 04:55:00;;;;;;;8.38;7.20;;;;;;;19.29;60.27;100443.27;127103;1097;101680;-80
2021/06/28 04:57:28;;;;;;;10.10;6.83;;;;;;;19.33;60.78;100442.97;127121;1096;114974;-81
2021/06/28 04:59:55;;;;;;;9.73;7.63;;;;;;;19.41;60.32;100447.89;127279;1096;101066;-80
2021/06/28 05:02:23;;;;;;;10.35;7.15;;;;;;;19.42;59.89;100446.05;126713;1096;102942;-80
2021/06/28 05:04:51;;;;;;;10.80;7.20;;;;;;;19.45;60.02;100451.28;124211;1095;116428;-80
2021/06/28 05:07:20;;;;;;;9.87;7.50;;;;;;;19.51;60.10;100454.47;124122;1096;103031;-79
2021/06/28 05:09:48;;;;;;;8.73;7.87;;;;;;;19.56;59.99;100456.86;124102;1097;114617;-80
2021/06/28 05:12:15;;;;;;;8.23;7.43;;;;;;;19.63;60.35;100455.52;124209;1096;103031;-79
2021/06/28 05:14:44;;;;;;;8.65;7.40;;;;;;;19.66;60.43;100452.62;124208;1096;116183;-80
2021/06/28 05:17:12;;;;;;;8.27;7.27;;;;;;;19.74;60.24;100462.05;124164;1096;103274;-80
2021/06/28 05:19:39;;;;;;;9.23;8.07;;;;;;;19.76;60.08;100465.55;124335;1095;103193;-82
2021/06/28 05:22:07;;;;;;;9.00;8.10;;;;;;;19.78;60.16;100461.78;124077;1096;114499;-80
2021/06/28 05:24:35;;;;;;;13.35;9.18;;;;;;;19.82;59.97;100467.86;124255;1096;103113;-81
2021/06/28 05:27:03;;;;;;;11.30;9.23;;;;;;;19.83;60.28;100472.31;124026;1095;115104;-80
2021/06/28 05:29:30;;;;;;;14.03;9.30;;;;;;;19.85;60.51;100468.55;124298;1096;103767;-81
2021/06/28 05:31:57;;;;;;;10.47;7.60;;;;;;;19.88;60.37;100465.63;124128;1095;102946;-81
2021/06/28 05:34:25;;;;;;;10.20;8.43;;;;;;;19.94;59.79;100469.80;124029;1095;114509;-79
2021/06/28 05:37:06;;;;;;;10.95;8.95;;;;;;;19.97;59.90;100474.14;124148;1096;103063;-81
2021/06/28 05:39:33;;;;;;;11.90;8.63;;;;;;;20.03;59.75;100481.84;124108;1096;115875;-81
2021/06/28 05:42:00;;;;;;;9.47;7.90;;;;;;;20.10;59.92;100480.49;124255;1096;103094;-80
2021/06/28 05:44:28;;;;;;;10.55;9.10;;;;;;;20.16;59.56;100476.52;124664;1096;102999;-81
2021/06/28 05:46:55;;;;;;;10.65;9.05;;;;;;;20.19;59.55;100485.30;124119;1096;115684;-80
2021/06/28 05:49:31;;;;;;;10.47;9.40;;;;;;;20.25;59.45;100486.73;124223;1095;103024;-80
2021/06/28 05:51:59;;;;;;;13.27;8.80;;;;;;;20.30;59.19;100487.30;124031;1096;115067;-81
2021/06/28 05:54:32;;;;;;;11.50;9.37;;;;;;;20.34;59.15;100482.53;124134;1096;103021;-80
2021/06/28 05:57:00;;;;;;;10.10;9.00;;;;;;;20.42;59.68;100482.03;124207;1095;116248;-78
2021/06/28 05:59:28;;;;;;;9.73;8.73;;;;;;;20.51;59.62;100485.02;124226;1096;102953;-80
2021/06/28 06:01:55;;;;;;;12.23;8.25;;;;;;;20.62;59.56;100484.29;124261;1096;103038;-80
2021/06/28 06:04:36;;;;;;;10.53;8.35;;;;;;;20.71;59.10;100490.94;124182;1095;114353;-80
2021/06/28 06:07:18;;;;;;;9.63;8.60;;;;;;;20.77;59.13;100501.36;124203;1099;103185;-81
2021/06/28 06:09:45;;;;;;;11.95;8.55;;;;;;;20.84;59.11;100499.10;124191;1100;114931;-80
2021/06/28 06:12:14;;;;;;;10.20;8.43;;;;;;;20.90;59.49;100501.41;124126;1097;103292;-81
2021/06/28 06:14:42;;;;;;;10.33;8.85;;;;;;;20.92;59.08;100502.15;124503;1096;103656;-81
2021/06/28 06:17:23;;;;;;;15.40;8.90;;;;;;;20.97;59.20;100504.56;124239;1096;114721;-80
2021/06/28 06:19:51;;;;;;;15.27;9.73;;;;;;;21.05;58.96;100507.60;124343;1096;103730;-81
2021/06/28 06:22:18;;;;;;;12.73;9.37;;;;;;;21.09;59.19;100502.86;124159;1096;116286;-81
2021/06/28 06:24:46;;;;;;;12.10;8.38;;;;;;;21.12;58.96;100514.32;124239;1096;104609;-81
2021/06/28 06:27:27;;;;;;;11.78;9.10;;;;;;;21.22;59.08;100501.03;124275;1095;115064;-81
2021/06/28 06:29:56;;;;;;;13.33;9.48;;;;;;;21.32;58.75;100507.52;124367;1095;103156;-81
2021/06/28 06:32:24;;;;;;;12.85;8.83;;;;;;;21.41;58.68;100503.31;124312;1096;103048;-81
2021/06/28 06:34:51;;;;;;;9.10;8.20;;;;;;;21.48;58.54;100510.02;124251;1096;114352;-81
2021/06/28 06:37:20;;;;;;;9.80;8.23;;;;;;;21.56;58.63;100505.95;124279;1096;103016;-81
2021/06/28 06:39:48;;;;;;;8.63;7.43;;;;;;;21.63;57.93;100510.83;124149;1096;114630;-81
2021/06/28 06:42:17;;;;;;;11.43;8.10;;;;;;;21.67;58.03;100514.17;124233;1096;103101;-80
2021/06/28 06:44:45;;;;;;;10.95;8.75;;;;;;;21.73;58.70;100511.03;124306;1095;103194;-81
2021/06/28 06:47:12;;;;;;;9.53;8.25;;;;;;;21.81;58.46;100511.34;124013;1095;115277;-82
2021/06/28 06:49:42;;;;;;;9.90;8.00;;;;;;;21.88;58.08;100511.77;124363;1097;103189;-82
2021/06/28 06:52:10;;;;;;;10.78;7.00;;;;;;;21.96;57.69;100516.64;124398;1096;114672;-82
2021/06/28 06:54:37;;;;;;;9.03;7.48;;;;;;;22.01;58.00;100517.18;124391;1095;103272;-82
2021/06/28 06:57:06;;;;;;;10.23;7.30;;;;;;;22.10;56.63;100527.36;124314;1096;114754;-81
2021/06/28 06:59:47;;;;;;;7.38;6.68;;;;;;;22.16;57.40;100515.19;124480;1096;103121;-82
2021/06/28 07:02:14;;;;;;;14.87;7.23;;;;;;;22.25;57.45;100516.38;124971;1096;103140;-81
2021/06/28 07:04:42;;;;;;;14.80;7.17;;;;;;;22.32;55.85;100529.34;124321;1095;114496;-81
2021/06/28 07:07:24;;;;;;;7.47;6.73;;;;;;;22.40;55.37;100526.11;124448;1095;103785;-80
2021/06/28 07:10:07;;;;;;;9.70;6.30;;;;;;;22.50;55.74;100532.59;124451;1095;115668;-80
2021/06/28 07:12:35;;;;;;;7.98;6.53;;;;;;;22.59;54.91;100535.59;124594;1095;102958;-81
2021/06/28 07:15:03;;;;;;;7.83;7.10;;;;;;;22.63;54.85;100531.66;124164;1096;116085;-81
2021/06/28 07:17:30;;;;;;;11.73;6.83;;;;;;;22.71;54.79;100529.23;124570;1096;103039;-80
2021/06/28 07:19:58;;;;;;;7.40;5.83;;;;;;;22.76;54.29;100535.19;124442;1096;103525;-82
2021/06/28 07:22:25;;;;;;;7.00;6.00;;;;;;;22.79;53.57;100525.94;124361;1096;114817;-84
2021/06/28 07:24:58;;;;;;;7.08;5.90;;;;;;;22.82;52.85;100532.02;124823;1096;103081;-80
2021/06/28 07:27:33;;;;;;;12.67;5.90;;;;;;;22.85;51.68;100539.06;124365;1095;114888;-83
2021/06/28 07:30:01;;;;;;;5.95;5.35;;;;;;;22.90;52.24;100538.70;124474;1096;103000;-81
2021/06/28 07:32:28;;;;;;;5.23;4.73;;;;;;;22.94;52.72;100532.94;124576;1096;103025;-82
2021/06/28 07:34:56;;;;;;;4.95;4.45;;;;;;;23.02;52.66;100532.36;124393;1096;114462;-83
2021/06/28 07:37:23;;;;;;;7.97;6.30;;;;;;;23.10;52.78;100529.91;124462;1096;103101;-83
2021/06/28 07:39:51;;;;;;;6.80;5.50;;;;;;;23.20;52.38;100530.97;124267;1096;115341;-82
2021/06/28 07:42:19;;;;;;;6.00;4.50;;;;;;;23.27;50.97;100522.32;124368;1096;103012;-82
2021/06/28 07:44:47;;;;;;;8.67;6.00;;;;;;;23.32;51.52;100526.41;124393;1096;103039;-83
2021/06/28 07:47:14;;;;;;;6.78;6.00;;;;;;;23.37;50.61;100531.50;124231;1096;114112;-83
2021/06/28 07:49:42;;;;;;;5.10;4.60;;;;;;;23.43;50.51;100531.03;124379;1096;102993;-83
2021/06/28 07:52:10;;;;;;;9.80;5.23;;;;;;;23.51;51.05;100520.41;124090;1096;114618;-85
2021/06/28 07:54:52;;;;;;;8.05;4.95;;;;;;;23.59;50.62;100519.81;124524;1096;104247;-82
2021/06/28 07:57:21;;;;;;;5.60;4.80;;;;;;;23.67;50.14;100519.17;124110;1096;116146;-79
2021/06/28 07:59:55;;;;;;;8.13;5.30;;;;;;;23.73;50.25;100518.70;124232;1096;103495;-80
2021/06/28 08:02:23;;;;;;;6.33;4.97;;;;;;;23.80;50.82;100524.51;124244;1096;103146;-80
2021/06/28 08:04:52;;;;;;;6.67;5.07;;;;;;;23.90;49.72;100519.22;124140;1096;114494;-83
2021/06/28 08:07:21;;;;;;;6.43;5.43;;;;;;;23.96;49.58;100516.01;124411;1096;103042;-81
2021/06/28 08:10:02;;;;;;;5.90;4.30;;;;;;;24.01;49.50;100522.80;124285;1096;114530;-82
2021/06/28 08:12:29;;;;;;;4.67;4.27;;;;;;;24.07;49.22;100520.58;124346;1096;103684;-83
2021/06/28 08:14:58;;;;;;;4.47;3.97;;;;;;;24.15;47.53;100520.80;124720;1095;103401;-88
2021/06/28 08:17:25;;;;;;;6.07;4.60;;;;;;;24.20;48.04;100519.47;124640;1097;114426;-82
2021/06/28 08:19:53;;;;;;;6.83;4.93;;;;;;;24.27;48.08;100516.22;124922;1096;103742;-83
2021/06/28 08:22:20;;;;;;;5.07;4.57;;;;;;;24.35;48.14;100517.33;124625;1096;114650;-82
2021/06/28 08:24:53;;;;;;;8.50;4.10;;;;;;;24.47;47.49;100515.45;124370;1096;103847;-81
2021/06/28 08:27:21;;;;;;;4.60;4.20;;;;;;;24.58;47.30;100513.66;124299;1095;114716;-82
2021/06/28 08:30:08;;;;;;;4.57;3.97;;;;;;;24.66;46.18;100520.24;124425;1096;103066;-82
2021/06/28 08:32:36;;;;;;;4.73;4.23;;;;;;;24.78;45.96;100507.45;124566;1095;103060;-82
2021/06/28 08:35:05;;;;;;;4.27;3.80;;;;;;;24.91;45.06;100512.73;124819;1094;114825;-80
2021/06/28 08:37:46;;;;;;;4.17;3.77;;;;;;;24.97;44.23;100505.89;124046;1100;103348;-82
2021/06/28 08:40:27;;;;;;;5.50;4.50;;;;;;;25.05;43.93;100516.98;124247;1100;115623;-81
2021/06/28 08:43:09;;;;;;;4.27;3.27;;;;;;;25.18;44.31;100509.48;124249;1100;102966;-82
2021/06/28 08:45:40;;;;;;;4.40;4.00;;;;;;;25.33;44.70;100509.16;123768;1097;115104;-82
2021/06/28 08:48:22;;;;;;;4.10;3.70;;;;;;;25.53;44.51;100511.02;123663;1103;103271;-82
2021/06/28 08:50:52;;;;;;;5.75;4.18;;;;;;;25.69;44.10;100501.50;123634;1103;103041;-81
2021/06/28 08:53:34;;;;;;;6.80;3.80;;;;;;;25.81;44.59;100513.19;126219;1101;114102;-79
2021/06/28 08:56:07;;;;;;;7.20;3.53;;;;;;;25.94;43.00;100512.93;126040;1101;101866;-84
2021/06/28 08:58:35;;;;;;;4.23;3.83;;;;;;;26.09;42.57;100508.02;123788;1103;114750;-81
2021/06/28 09:01:03;;;;;;;4.10;3.70;;;;;;;25.99;42.53;100507.92;123720;1103;103076;-83
2021/06/28 09:03:31;;;;;;;4.60;3.50;;;;;;;26.02;42.83;100507.67;123792;1103;115030;-82
2021/06/28 09:06:10;;;;;;;5.20;3.47;;;;;;;25.99;41.06;100505.20;123985;1102;103148;-87
2021/06/28 09:08:38;;;;;;;5.05;3.70;;;;;;;26.16;42.24;100499.11;124614;1101;103966;-83
2021/06/28 09:11:16;;;;;;;5.50;3.93;;;;;;;26.41;41.24;100499.61;123738;1101;116559;-81
2021/06/28 09:13:51;;;;;;;4.60;3.47;;;;;;;26.30;41.84;100502.48;123785;1102;103249;-84
2021/06/28 09:16:21;;;;;;;5.77;4.00;;;;;;;26.18;41.25;100498.99;123774;1099;115663;-83
2021/06/28 09:18:51;;;;;;;5.65;3.38;;;;;;;26.35;40.92;100502.89;127175;1099;101090;-83
2021/06/28 09:21:40;;;;;;;4.00;3.07;;;;;;;26.50;40.31;100500.64;124276;1099;114801;-83
2021/06/28 09:24:41;;;;;;;3.67;3.30;;;;;;;26.65;40.62;100503.81;124353;1099;103196;-82
2021/06/28 09:27:11;;;;;;;3.70;3.13;;;;;;;26.91;40.46;100500.53;124245;1095;103080;-83
2021/06/28 09:29:47;;;;;;;3.60;3.30;;;;;;;27.07;38.93;100511.77;124416;1095;114344;-84
2021/06/28 09:32:16;;;;;;;3.90;3.50;;;;;;;27.51;39.49;100500.33;124523;1096;103047;-84
2021/06/28 09:34:46;;;;;;;4.57;3.00;;;;;;;28.15;37.42;100501.41;124900;1096;114726;-81
2021/06/28 09:37:15;;;;;;;3.17;2.83;;;;;;;28.94;36.24;100501.74;124510;1096;103471;-82
2021/06/28 09:39:44;;;;;;;3.03;2.63;;;;;;;30.08;33.81;100501.84;124396;1096;115674;-82
2021/06/28 09:42:22;;;;;;;3.58;2.98;;;;;;;30.96;31.95;100497.77;124630;1096;103307;-82
2021/06/28 09:44:51;;;;;;;2.90;2.60;;;;;;;31.78;30.65;100497.70;124331;1095;103697;-83
2021/06/28 09:47:22;;;;;;;3.13;2.80;;;;;;;32.49;28.83;100505.16;124220;1096;114647;-85
2021/06/28 09:50:13;;;;;;;3.35;2.30;;;;;;;33.20;28.01;100506.91;124371;1096;103861;-86
2021/06/28 09:52:55;;;;;;;3.77;2.97;;;;;;;34.12;28.67;100498.36;124694;1096;116156;-84
2021/06/28 09:55:42;;;;;;;5.20;2.47;;;;;;;34.77;27.85;100501.23;124204;1095;103201;-84
2021/06/28 09:58:09;;;;;;;3.45;2.40;;;;;;;35.27;24.96;100495.76;124244;1096;116939;-83
2021/06/28 10:00:38;;;;;;;2.53;2.33;;;;;;;35.89;26.14;100484.91;124282;1096;103144;-84
2021/06/28 10:03:42;;;;;;;3.30;2.70;;;;;;;36.06;24.92;100488.20;124332;1095;103169;-82
2021/06/28 10:09:02;;;;;;;3.23;2.15;;;;;;;36.53;23.89;100490.31;124680;1096;103013;-84
2021/06/28 10:11:30;;;;;;;2.53;1.90;;;;;;;36.88;22.96;100492.95;124579;1096;116344;-84
2021/06/28 10:14:11;;;;;;;3.00;2.43;;;;;;;36.97;22.05;100495.30;124796;1096;103113;-83
2021/06/28 10:16:40;;;;;;;3.37;2.37;;;;;;;37.19;23.27;100488.69;124296;1095;114064;-83
2021/06/28 10:19:10;;;;;;;3.93;2.60;;;;;;;37.21;23.81;100489.34;124252;1095;103068;-84
2021/06/28 10:21:38;;;;;;;2.90;2.10;;;;;;;37.68;23.42;100487.36;124113;1095;103218;-83
2021/06/28 10:24:06;;;;;;;4.18;2.28;;;;;;;37.20;22.27;100494.02;124108;1096;115873;-84
2021/06/28 10:26:35;;;;;;;3.05;2.60;;;;;;;37.28;23.03;100490.18;124531;1095;102997;-86
2021/06/28 10:29:23;;;;;;;2.83;2.63;;;;;;;36.42;22.96;100483.46;124035;1095;115884;-83
2021/06/28 10:31:55;;;;;;;4.15;1.58;;;;;;;36.83;23.01;100481.63;124733;1096;103093;-83
2021/06/28 10:34:29;;;;;;;2.20;1.98;;;;;;;37.21;22.59;100484.63;124310;1096;115981;-84
2021/06/28 10:37:01;;;;;;;2.70;2.30;;;;;;;37.42;21.87;100472.47;124448;1095;103048;-85
2021/06/28 10:39:31;;;;;;;2.68;2.13;;;;;;;37.72;22.16;100479.45;124228;1095;103099;-85
2021/06/28 10:42:36;;;;;;;2.57;1.87;;;;;;;37.88;21.57;100475.38;124928;1096;114660;-83
2021/06/28 10:45:11;;;;;;;3.77;2.33;;;;;;;36.36;22.75;100482.35;124464;1096;103022;-85
2021/06/28 10:47:40;;;;;;;2.28;2.08;;;;;;;36.33;22.69;100477.23;124993;1096;115565;-85
2021/06/28 10:50:09;;;;;;;2.48;1.70;;;;;;;35.66;23.75;100469.41;124602;1096;103169;-87
2021/06/28 10:52:37;;;;;;;3.60;2.20;;;;;;;35.36;23.54;100467.94;124715;1096;114475;-86
2021/06/28 10:55:27;;;;;;;2.93;2.60;;;;;;;35.48;24.59;100464.42;125320;1096;103010;-86
2021/06/28 10:57:54;;;;;;;2.47;2.07;;;;;;;35.79;23.66;100459.45;124488;1095;115077;-84
2021/06/28 11:00:53;;;;;;;3.35;2.60;;;;;;;35.95;22.85;100461.05;124645;1096;103064;-85
2021/06/28 11:03:32;;;;;;;3.13;2.23;;;;;;;35.69;24.65;100459.00;124592;1095;103159;-85
2021/06/28 11:06:24;;;;;;;3.00;1.98;;;;;;;35.01;25.70;100456.79;124681;1095;115794;-84
2021/06/28 11:09:09;;;;;;;3.60;2.37;;;;;;;34.16;25.24;100449.05;124153;1096;103056;-83
2021/06/28 11:11:55;;;;;;;3.50;2.67;;;;;;;33.67;26.89;100451.38;124182;1096;114740;-82
2021/06/28 11:14:23;;;;;;;3.05;2.48;;;;;;;33.36;27.09;100461.75;124155;1096;103479;-83
2021/06/28 11:16:55;;;;;;;2.15;1.95;;;;;;;32.76;26.07;100458.81;125405;1096;115855;-83
2021/06/28 11:19:46;;;;;;;2.50;2.30;;;;;;;32.05;27.27;100454.21;124526;1096;102999;-83
2021/06/28 11:22:27;;;;;;;2.40;2.20;;;;;;;31.57;29.07;100445.94;124392;1096;115999;-82
2021/06/28 11:25:25;;;;;;;4.38;2.35;;;;;;;31.15;29.20;100452.55;124308;1096;103025;-83
2021/06/28 11:27:58;;;;;;;4.73;2.30;;;;;;;30.78;29.44;100446.55;125270;1096;114661;-84
2021/06/28 11:30:28;;;;;;;3.70;1.95;;;;;;;30.66;29.93;100457.02;124318;1096;103024;-85
2021/06/28 11:33:09;;;;;;;4.13;2.33;;;;;;;30.47;30.91;100452.71;125303;1095;102941;-83